Terminal Aerodrome Forecast
Issued by NWS Portland, ME

Current Version | Previous Version | Text Only | Print | Product List | Glossary On
Versions: 1 2 3 4 5 6 7 8 9 10 11 12 13 14 15 16 17 18 19 20 21 22
219 FTUS41 KGYX 091950 AAA TAFCON TAF AMD KCON 091950Z 0920/1018 32004KT P6SM FEW015 BKN030 FM100300 VRB02KT P6SM OVC025 FM100900 00000KT 4SM -SN BR OVC015=

USA.gov is the U.S. government's official web portal to all federal, state and local government web resources and services.